Time;durP1;ratioP1;P1;durP2;ratioP2;P2;SDS_P1;SDS_P2;PMS_P1;PMS_P2;Temp;Humidity;BMP_temperature;BMP_pressure;BME280_temperature;BME280_humidity;BME280_pressure;Samples;Min_cycle;Max_cycle;Signal;HPM_P1;HPM_P2
2022/01/22 00:01:13;;;;;;;10.83;3.53;;;5.90;99.90;;;;;;5029664;28;20166;-57
2022/01/22 00:03:39;;;;;;;8.30;3.37;;;5.90;99.90;;;;;;5012204;28;20177;-57
2022/01/22 00:06:05;;;;;;;7.73;3.20;;;5.90;99.90;;;;;;5029626;28;20181;-56
2022/01/22 00:08:32;;;;;;;7.00;3.43;;;5.80;99.90;;;;;;5029924;28;20189;-56
2022/01/22 00:10:57;;;;;;;6.03;3.10;;;5.90;99.90;;;;;;5029923;28;20174;-56
2022/01/22 00:16:08;;;;;;;7.07;3.20;;;5.80;99.90;;;;;;5029991;28;20236;-56
2022/01/22 00:18:34;;;;;;;9.20;3.30;;;5.80;99.90;;;;;;5029792;28;20277;-56
2022/01/22 00:21:00;;;;;;;7.37;2.93;;;5.80;99.90;;;;;;5029248;28;20584;-56
2022/01/22 00:23:26;;;;;;;8.27;2.83;;;5.80;99.90;;;;;;5029825;28;20205;-56
2022/01/22 00:25:53;;;;;;;7.43;2.90;;;5.70;99.90;;;;;;5012140;28;20170;-56
2022/01/22 00:28:19;;;;;;;7.50;3.10;;;5.70;99.90;;;;;;5015268;28;20257;-56
2022/01/22 00:30:44;;;;;;;8.57;3.10;;;5.70;99.90;;;;;;5025707;28;20658;-56
2022/01/22 00:33:10;;;;;;;8.53;3.17;;;5.70;99.90;;;;;;5029388;28;20259;-56
2022/01/22 00:35:36;;;;;;;6.73;2.97;;;5.70;99.90;;;;;;5024522;28;20178;-57
2022/01/22 00:38:02;;;;;;;5.80;3.10;;;5.70;99.90;;;;;;5026240;28;20193;-56
2022/01/22 00:40:28;;;;;;;9.10;3.00;;;5.60;99.90;;;;;;5033479;28;20652;-57
2022/01/22 00:42:54;;;;;;;9.93;3.10;;;5.60;99.90;;;;;;5033092;28;20213;-57
2022/01/22 00:45:20;;;;;;;6.83;2.80;;;5.50;99.90;;;;;;5032931;28;20550;-57
2022/01/22 00:47:48;;;;;;;5.37;2.93;;;5.50;99.90;;;;;;5033405;28;20201;-57
2022/01/22 00:50:16;;;;;;;4.60;3.00;;;5.40;99.90;;;;;;5031790;28;20244;-57
2022/01/22 00:52:44;;;;;;;6.57;2.93;;;5.40;99.90;;;;;;5032993;28;20259;-57
2022/01/22 00:55:11;;;;;;;5.00;3.17;;;5.30;99.90;;;;;;5033107;28;20182;-57
2022/01/22 00:57:37;;;;;;;6.50;3.20;;;5.20;99.90;;;;;;5033070;28;20637;-57
2022/01/22 01:00:06;;;;;;;6.83;3.50;;;5.10;99.90;;;;;;5033123;28;20201;-57
2022/01/22 01:02:32;;;;;;;6.27;3.27;;;5.00;99.90;;;;;;5019436;28;20175;-57
2022/01/22 01:04:58;;;;;;;6.50;3.40;;;4.90;99.90;;;;;;5020276;28;20182;-57
2022/01/22 01:07:24;;;;;;;5.90;3.23;;;4.90;99.90;;;;;;5032989;28;20193;-56
2022/01/22 01:09:49;;;;;;;5.27;3.40;;;4.80;99.90;;;;;;5032872;28;20177;-56
2022/01/22 01:12:15;;;;;;;8.63;3.10;;;5.40;99.90;;;;;;5032354;28;20228;-57
2022/01/22 01:14:49;;;;;;;7.33;3.30;;;4.70;99.90;;;;;;5019497;28;20735;-57
2022/01/22 01:17:46;;;;;;;6.33;3.23;;;4.60;99.90;;;;;;5013008;28;20174;-57
2022/01/22 01:34:08;;;;;;;6.10;2.87;;;4.50;99.90;;;;;;5032152;28;20220;-57
2022/01/22 01:36:34;;;;;;;8.27;3.23;;;4.50;99.90;;;;;;5032202;28;20182;-57
2022/01/22 01:39:02;;;;;;;4.97;3.00;;;4.50;99.90;;;;;;5032415;28;20196;-58
2022/01/22 01:41:40;;;;;;;6.93;3.30;;;4.50;99.90;;;;;;5031840;28;20182;-58
2022/01/22 01:44:06;;;;;;;8.73;3.63;;;4.50;99.90;;;;;;5032391;28;20273;-57
2022/01/22 01:46:33;;;;;;;7.70;3.50;;;4.50;99.90;;;;;;5031687;28;20170;-57
2022/01/22 01:48:59;;;;;;;9.93;3.60;;;4.50;99.90;;;;;;5031947;28;20185;-57
2022/01/22 01:51:30;;;;;;;9.43;3.43;;;4.50;99.90;;;;;;5031797;28;20178;-57
2022/01/22 01:59:12;;;;;;;8.07;3.60;;;4.50;99.90;;;;;;5032299;28;20173;-57
2022/01/22 02:01:38;;;;;;;6.17;3.00;;;4.40;99.90;;;;;;5031741;28;20170;-57
2022/01/22 02:04:05;;;;;;;9.37;3.67;;;4.30;99.90;;;;;;5031720;28;20181;-57
2022/01/22 02:06:31;;;;;;;8.37;3.27;;;4.30;99.90;;;;;;5031849;28;20169;-56
2022/01/22 02:08:56;;;;;;;6.63;3.47;;;4.20;99.90;;;;;;5031528;28;20255;-57
2022/01/22 02:11:25;;;;;;;7.57;3.43;;;4.30;99.90;;;;;;5031871;28;20623;-56
2022/01/22 02:24:52;;;;;;;7.47;3.63;;;4.30;99.90;;;;;;5031218;28;20212;-56
2022/01/22 02:27:19;;;;;;;9.30;3.30;;;4.30;99.90;;;;;;5031105;28;20269;-56
2022/01/22 02:29:45;;;;;;;9.57;3.87;;;4.30;99.90;;;;;;5013160;28;20177;-56
2022/01/22 02:37:55;;;;;;;6.10;3.30;;;4.20;99.90;;;;;;4987485;28;20222;-57
2022/01/22 02:40:36;;;;;;;8.10;3.17;;;4.20;99.90;;;;;;5031013;28;20268;-56
2022/01/22 02:43:02;;;;;;;10.53;3.43;;;4.20;99.90;;;;;;5031125;28;20169;-56
2022/01/22 02:45:28;;;;;;;7.67;3.50;;;4.10;99.90;;;;;;5031107;28;20723;-57
2022/01/22 02:47:54;;;;;;;7.07;3.17;;;4.10;99.90;;;;;;5030857;28;20253;-57
2022/01/22 02:50:20;;;;;;;7.67;3.40;;;4.00;99.90;;;;;;5030966;28;20173;-57
2022/01/22 02:52:47;;;;;;;10.53;3.53;;;4.00;99.90;;;;;;5030644;28;20201;-57
2022/01/22 02:55:14;;;;;;;7.97;3.43;;;3.90;99.90;;;;;;5030921;28;20613;-56
2022/01/22 02:57:42;;;;;;;6.00;3.60;;;3.90;99.90;;;;;;5013109;28;20277;-57
2022/01/22 03:00:12;;;;;;;7.87;3.70;;;3.80;99.90;;;;;;5030001;28;20616;-57
2022/01/22 03:02:39;;;;;;;7.80;3.80;;;3.80;99.90;;;;;;5029758;28;20644;-58
2022/01/22 03:05:08;;;;;;;4.03;3.00;;;3.70;99.90;;;;;;5030763;28;20162;-57
2022/01/22 03:07:35;;;;;;;6.90;3.60;;;3.60;99.90;;;;;;5030235;28;20244;-57
2022/01/22 03:10:05;;;;;;;5.90;3.60;;;3.60;99.90;;;;;;5030355;28;20223;-57
2022/01/22 03:27:59;;;;;;;6.60;4.30;;;3.40;99.90;;;;;;5030608;28;20236;-57
2022/01/22 03:30:25;;;;;;;9.07;4.00;;;3.40;99.90;;;;;;5010346;28;20210;-57
2022/01/22 03:32:54;;;;;;;8.57;4.40;;;3.30;99.90;;;;;;5030200;28;20201;-57
2022/01/22 03:37:53;;;;;;;6.80;4.30;;;3.20;99.90;;;;;;5030067;28;20644;-56
2022/01/22 03:40:22;;;;;;;10.47;4.77;;;3.10;99.90;;;;;;5029106;28;20181;-59
2022/01/22 03:42:50;;;;;;;8.37;4.10;;;3.10;99.90;;;;;;5029796;28;20178;-59
2022/01/22 03:45:17;;;;;;;6.70;4.23;;;3.00;99.90;;;;;;5030197;28;20177;-59
2022/01/22 03:47:43;;;;;;;12.97;4.40;;;3.00;99.90;;;;;;5030114;28;20172;-57
2022/01/22 03:50:11;;;;;;;8.93;4.87;;;3.00;99.90;;;;;;5030193;28;20266;-57
2022/01/22 03:52:38;;;;;;;9.70;4.47;;;3.00;99.90;;;;;;5030064;28;20281;-58
2022/01/22 03:55:07;;;;;;;11.33;4.70;;;3.00;99.90;;;;;;5029680;28;20356;-58
2022/01/22 03:57:33;;;;;;;7.50;3.83;;;2.90;99.90;;;;;;5012714;28;20166;-58
2022/01/22 03:59:59;;;;;;;13.70;4.70;;;2.90;99.90;;;;;;5029940;28;20189;-57
2022/01/22 04:05:06;;;;;;;9.67;4.53;;;2.70;99.90;;;;;;5030369;28;20174;-59
2022/01/22 04:10:20;;;;;;;7.87;5.10;;;2.60;99.90;;;;;;5011095;28;20221;-59
2022/01/22 04:13:00;;;;;;;10.60;4.77;;;2.60;99.90;;;;;;5027339;28;20305;-58
2022/01/22 04:15:29;;;;;;;7.23;4.33;;;2.50;99.90;;;;;;5033906;28;20542;-57
2022/01/22 04:26:20;;;;;;;13.60;5.20;;;2.40;99.90;;;;;;5034264;28;20212;-58
2022/01/22 04:28:46;;;;;;;9.50;5.17;;;2.30;99.90;;;;;;5033589;28;20228;-58
2022/01/22 04:31:12;;;;;;;10.37;5.83;;;2.20;99.90;;;;;;5033510;28;20314;-57
2022/01/22 04:33:38;;;;;;;11.67;5.73;;;2.20;99.90;;;;;;5033342;28;20555;-57
2022/01/22 04:36:04;;;;;;;11.47;5.30;;;2.10;99.90;;;;;;5033462;28;20178;-58
2022/01/22 04:38:30;;;;;;;12.10;5.63;;;2.10;99.90;;;;;;5033744;28;20265;-58
2022/01/22 04:40:56;;;;;;;12.83;5.83;;;2.00;99.90;;;;;;5029918;28;20260;-58
2022/01/22 04:43:22;;;;;;;14.90;5.67;;;1.90;99.90;;;;;;5009380;28;20236;-58
2022/01/22 04:45:55;;;;;;;10.03;5.33;;;1.90;99.90;;;;;;5025663;28;20185;-58
2022/01/22 04:48:29;;;;;;;10.13;5.93;;;1.90;99.90;;;;;;5013631;28;20171;-58
2022/01/22 04:56:24;;;;;;;10.00;5.23;;;1.80;99.90;;;;;;5033156;28;20181;-57
2022/01/22 04:58:49;;;;;;;11.03;5.83;;;1.70;99.90;;;;;;5031376;28;20182;-57
2022/01/22 05:01:15;;;;;;;10.63;5.60;;;1.70;99.90;;;;;;5032918;28;20649;-57
2022/01/22 05:03:41;;;;;;;12.17;5.50;;;1.70;99.90;;;;;;5033166;28;20653;-59
2022/01/22 05:06:07;;;;;;;9.40;5.67;;;1.60;99.90;;;;;;5032566;28;20252;-58
2022/01/22 05:08:33;;;;;;;8.90;5.47;;;1.60;99.90;;;;;;5033144;28;20224;-58
2022/01/22 05:10:59;;;;;;;10.27;5.73;;;1.60;99.90;;;;;;5032820;28;20209;-58
2022/01/22 05:13:25;;;;;;;11.30;6.13;;;1.50;99.90;;;;;;5032860;28;20253;-58
2022/01/22 05:15:51;;;;;;;9.47;5.30;;;1.50;99.90;;;;;;5033136;28;20624;-58
2022/01/22 05:18:17;;;;;;;13.27;6.13;;;1.50;99.90;;;;;;5032926;28;20181;-59
2022/01/22 05:20:49;;;;;;;10.40;6.03;;;1.50;99.90;;;;;;5033037;28;20249;-58
2022/01/22 05:23:20;;;;;;;12.13;5.87;;;1.40;99.90;;;;;;5032963;28;20177;-57
2022/01/22 05:25:53;;;;;;;11.17;6.10;;;1.40;99.90;;;;;;5032265;28;20239;-55
2022/01/22 05:39:21;;;;;;;10.37;5.70;;;1.20;99.90;;;;;;5032427;28;20184;-58
2022/01/22 05:41:48;;;;;;;10.80;5.80;;;1.20;99.90;;;;;;5032683;28;20170;-58
2022/01/22 05:44:14;;;;;;;12.37;6.10;;;1.10;99.90;;;;;;5025680;28;20206;-57
2022/01/22 05:46:41;;;;;;;10.67;5.50;;;1.10;99.90;;;;;;4995457;28;20185;-57
2022/01/22 05:49:06;;;;;;;12.50;5.60;;;1.10;99.90;;;;;;5012845;28;20179;-56
2022/01/22 05:51:34;;;;;;;10.40;6.20;;;1.10;99.90;;;;;;5025709;28;20670;-58
2022/01/22 06:01:58;;;;;;;15.20;6.60;;;1.10;99.90;;;;;;5032705;28;20278;-58
2022/01/22 06:04:24;;;;;;;10.40;6.53;;;1.10;99.90;;;;;;5032268;28;20265;-58
2022/01/22 06:06:50;;;;;;;14.17;6.70;;;1.10;99.90;;;;;;5032439;28;20224;-59
2022/01/22 06:09:16;;;;;;;11.77;6.57;;;1.10;99.90;;;;;;5031913;28;20232;-58
2022/01/22 06:11:58;;;;;;;13.47;6.57;;;1.00;99.90;;;;;;5032366;28;20523;-57
2022/01/22 06:14:24;;;;;;;16.70;6.73;;;1.00;99.90;;;;;;5032118;28;20234;-57
2022/01/22 06:16:50;;;;;;;12.93;6.63;;;1.00;99.90;;;;;;5032271;28;20174;-56
2022/01/22 06:19:16;;;;;;;11.20;6.23;;;1.00;99.90;;;;;;5032312;28;20178;-57
2022/01/22 06:21:42;;;;;;;14.50;7.60;;;1.00;99.90;;;;;;5031921;28;20275;-57
2022/01/22 06:24:08;;;;;;;16.80;7.00;;;0.90;99.90;;;;;;5014755;28;20240;-56
2022/01/22 06:26:35;;;;;;;12.17;6.23;;;0.80;99.90;;;;;;5031695;28;20360;-57
2022/01/22 06:29:03;;;;;;;11.47;6.80;;;0.80;99.90;;;;;;5031778;28;20182;-57
2022/01/22 06:31:29;;;;;;;13.07;6.77;;;0.80;99.90;;;;;;5030555;28;20174;-56
2022/01/22 06:33:54;;;;;;;11.00;6.37;;;0.80;99.90;;;;;;5031717;28;20206;-57
2022/01/22 06:36:20;;;;;;;12.90;6.60;;;0.80;99.90;;;;;;5031030;28;20169;-57
2022/01/22 06:38:47;;;;;;;12.83;7.00;;;0.80;99.90;;;;;;5031364;28;20275;-57
2022/01/22 06:43:56;;;;;;;16.30;7.10;;;0.80;99.90;;;;;;5031595;28;20188;-57
2022/01/22 06:46:22;;;;;;;12.70;7.07;;;0.80;99.90;;;;;;5014166;28;20174;-56
2022/01/22 06:48:48;;;;;;;13.03;6.70;;;0.70;99.90;;;;;;5031407;28;20265;-58
2022/01/22 06:51:14;;;;;;;18.70;7.03;;;0.80;99.90;;;;;;5031228;28;20178;-61
2022/01/22 06:53:40;;;;;;;13.70;7.13;;;0.70;99.90;;;;;;5031264;28;20201;-58
2022/01/22 06:56:09;;;;;;;17.00;7.30;;;0.60;99.90;;;;;;5031074;28;20201;-57
2022/01/22 06:58:35;;;;;;;14.60;7.30;;;0.60;99.90;;;;;;5031496;28;20200;-59
2022/01/22 07:01:00;;;;;;;13.87;7.37;;;0.60;99.90;;;;;;5013525;28;20636;-58
2022/01/22 07:03:26;;;;;;;15.03;7.53;;;0.50;99.90;;;;;;5031385;28;20536;-57
2022/01/22 07:05:52;;;;;;;14.03;7.53;;;0.60;99.90;;;;;;5031474;28;20170;-57
2022/01/22 07:08:18;;;;;;;16.23;8.13;;;0.50;99.90;;;;;;5031396;28;20170;-58
2022/01/22 07:10:44;;;;;;;13.87;7.13;;;0.50;99.90;;;;;;5031223;28;20169;-57
2022/01/22 07:13:09;;;;;;;16.23;7.80;;;0.50;99.90;;;;;;5030419;28;20240;-59
2022/01/22 07:15:35;;;;;;;15.70;7.63;;;0.50;99.90;;;;;;5031044;28;20666;-59
2022/01/22 07:18:01;;;;;;;19.40;7.30;;;0.50;99.90;;;;;;5031328;28;20674;-59
2022/01/22 07:20:30;;;;;;;15.30;7.63;;;0.40;99.90;;;;;;5031200;28;20174;-59
2022/01/22 07:23:12;;;;;;;17.57;8.13;;;0.50;99.90;;;;;;5028633;28;20181;-58
2022/01/22 07:25:38;;;;;;;15.17;7.43;;;0.50;99.90;;;;;;5021892;28;20174;-58
2022/01/22 07:28:04;;;;;;;21.17;8.30;;;0.50;99.90;;;;;;5029278;28;20177;-57
2022/01/22 07:30:31;;;;;;;13.73;7.57;;;0.50;99.90;;;;;;5017468;28;20699;-58
2022/01/22 07:32:56;;;;;;;19.00;8.03;;;0.50;99.90;;;;;;5011134;28;20269;-58
2022/01/22 07:35:22;;;;;;;14.97;8.10;;;0.50;99.90;;;;;;5017990;28;20178;-58
2022/01/22 07:37:48;;;;;;;16.13;7.63;;;0.40;99.90;;;;;;5030192;28;20178;-60
2022/01/22 07:40:14;;;;;;;16.13;7.27;;;0.40;99.90;;;;;;5030270;28;20179;-59
2022/01/22 07:42:40;;;;;;;18.20;7.37;;;0.40;99.90;;;;;;5025365;28;20182;-61
2022/01/22 07:45:08;;;;;;;16.30;6.83;;;0.40;99.90;;;;;;5030614;28;20188;-60
2022/01/22 07:47:34;;;;;;;17.27;7.30;;;0.40;99.90;;;;;;5031671;28;20633;-61
2022/01/22 07:50:00;;;;;;;15.23;7.83;;;0.50;99.90;;;;;;5034998;28;20165;-60
2022/01/22 07:52:26;;;;;;;14.47;7.20;;;0.40;99.90;;;;;;5034581;28;20189;-59
2022/01/22 07:54:52;;;;;;;19.60;8.03;;;0.50;99.90;;;;;;5033945;28;20186;-60
2022/01/22 07:57:18;;;;;;;16.43;7.97;;;0.40;99.90;;;;;;5034834;28;20184;-60
2022/01/22 07:59:44;;;;;;;16.93;7.53;;;0.50;99.90;;;;;;5034444;28;20265;-62
2022/01/22 08:02:10;;;;;;;14.47;7.43;;;0.50;99.90;;;;;;5034318;28;20184;-61
2022/01/22 08:04:36;;;;;;;16.07;7.40;;;0.50;99.90;;;;;;5034654;28;20173;-60
2022/01/22 08:07:04;;;;;;;18.30;7.80;;;0.50;99.90;;;;;;5022048;28;20252;-61
2022/01/22 08:09:30;;;;;;;18.33;7.57;;;0.50;99.90;;;;;;5025750;28;20178;-60
2022/01/22 08:11:56;;;;;;;19.37;8.00;;;0.50;99.90;;;;;;5034487;28;20257;-58
2022/01/22 08:14:22;;;;;;;16.63;8.17;;;0.50;99.90;;;;;;5033627;28;20328;-60
2022/01/22 08:16:49;;;;;;;18.43;8.53;;;0.50;99.90;;;;;;5024427;28;20637;-58
2022/01/22 08:19:16;;;;;;;16.20;8.47;;;0.60;99.90;;;;;;5028266;28;20178;-58
2022/01/22 08:21:43;;;;;;;17.17;8.60;;;0.70;99.90;;;;;;5034397;28;20578;-58
2022/01/22 08:24:10;;;;;;;18.50;7.90;;;0.80;99.90;;;;;;5034364;28;20172;-58
2022/01/22 08:26:41;;;;;;;16.23;7.37;;;0.90;99.90;;;;;;5034073;28;20181;-58
2022/01/22 08:29:06;;;;;;;16.07;7.97;;;1.00;99.90;;;;;;5033859;28;20201;-59
2022/01/22 08:36:47;;;;;;;16.00;7.53;;;1.50;99.90;;;;;;5034245;28;20231;-58
2022/01/22 08:39:16;;;;;;;16.10;7.43;;;1.70;99.90;;;;;;5033822;28;20174;-57
2022/01/22 08:41:42;;;;;;;14.47;6.97;;;1.70;99.90;;;;;;5033690;28;20174;-57
2022/01/22 08:44:08;;;;;;;15.63;7.47;;;2.00;99.90;;;;;;5033544;28;20502;-58
2022/01/22 08:46:34;;;;;;;13.20;7.40;;;2.20;99.90;;;;;;5031464;28;20173;-57
2022/01/22 08:49:01;;;;;;;15.57;6.77;;;2.30;99.90;;;;;;5028414;28;20180;-58
2022/01/22 08:51:27;;;;;;;10.97;6.30;;;2.30;99.90;;;;;;5033777;28;20663;-58
2022/01/22 08:53:55;;;;;;;11.23;5.90;;;2.50;99.90;;;;;;5033025;28;20209;-60
2022/01/22 08:56:21;;;;;;;9.13;5.77;;;2.90;99.90;;;;;;5033508;28;20631;-59
2022/01/22 08:58:47;;;;;;;14.30;5.43;;;3.20;99.90;;;;;;5032461;28;20177;-59
2022/01/22 09:01:13;;;;;;;9.07;5.27;;;3.40;99.90;;;;;;5032369;28;20268;-59
2022/01/22 09:03:39;;;;;;;8.70;5.67;;;3.60;99.90;;;;;;5032732;28;20178;-60
2022/01/22 09:06:07;;;;;;;13.17;5.60;;;4.10;99.90;;;;;;5035689;28;20204;-59
2022/01/22 09:08:33;;;;;;;8.73;5.10;;;4.10;99.90;;;;;;5051862;28;20180;-58
2022/01/22 09:10:58;;;;;;;9.80;5.97;;;4.40;99.90;;;;;;5002036;28;20174;-59
2022/01/22 09:13:26;;;;;;;9.40;5.40;;;4.90;99.90;;;;;;5015420;28;20218;-59
2022/01/22 09:15:55;;;;;;;11.17;5.37;;;5.40;99.90;;;;;;5014974;28;20178;-61
2022/01/22 09:18:21;;;;;;;10.63;4.90;;;5.90;99.90;;;;;;5032922;28;20212;-62
2022/01/22 09:23:17;;;;;;;8.27;5.40;;;6.80;99.90;;;;;;5031585;28;20209;-59
2022/01/22 09:25:45;;;;;;;12.07;6.07;;;7.00;99.90;;;;;;5032390;28;20273;-59
2022/01/22 09:28:12;;;;;;;9.40;5.47;;;8.50;99.90;;;;;;5031817;28;20181;-59
2022/01/22 09:30:39;;;;;;;8.73;5.50;;;9.10;99.90;;;;;;5032495;28;20327;-58
2022/01/22 09:33:05;;;;;;;11.43;5.67;;;8.30;99.90;;;;;;5030121;28;20275;-63
2022/01/22 09:35:31;;;;;;;10.50;5.40;;;9.00;99.90;;;;;;5032084;28;20196;-58
2022/01/22 09:37:57;;;;;;;9.27;5.93;;;9.30;99.90;;;;;;5032091;28;20182;-59
2022/01/22 09:40:28;;;;;;;14.10;6.47;;;8.30;99.90;;;;;;5032150;28;20597;-60
2022/01/22 09:42:54;;;;;;;12.63;6.57;;;8.30;99.90;;;;;;5032343;28;20174;-58
2022/01/22 09:45:21;;;;;;;10.67;6.50;;;8.50;99.90;;;;;;5032406;28;20512;-58
2022/01/22 09:47:48;;;;;;;17.80;6.87;;;9.20;99.90;;;;;;5032461;28;20236;-58
2022/01/22 09:50:17;;;;;;;12.30;6.00;;;9.50;99.90;;;;;;5030665;28;20195;-58
2022/01/22 09:52:45;;;;;;;10.57;6.73;;;8.50;99.90;;;;;;5039007;28;20256;-58
2022/01/22 09:55:11;;;;;;;12.33;6.40;;;8.00;99.90;;;;;;5019653;28;20683;-58
2022/01/22 09:57:38;;;;;;;12.87;5.97;;;7.60;99.90;;;;;;5031957;28;20212;-58
2022/01/22 10:00:10;;;;;;;11.07;6.33;;;7.50;99.90;;;;;;5031375;28;20174;-58
2022/01/22 10:02:47;;;;;;;10.30;6.40;;;7.40;99.90;;;;;;5014011;28;20186;-60
2022/01/22 10:05:37;;;;;;;10.50;6.27;;;7.20;99.90;;;;;;5031287;28;20173;-58
2022/01/22 10:08:18;;;;;;;14.20;6.90;;;7.00;99.90;;;;;;5006025;28;20186;-58
2022/01/22 10:10:45;;;;;;;14.87;7.30;;;6.60;99.90;;;;;;5031883;28;20170;-57
2022/01/22 10:13:11;;;;;;;19.53;8.60;;;6.50;99.90;;;;;;5031432;28;20237;-57
2022/01/22 10:15:39;;;;;;;15.83;8.53;;;6.40;99.90;;;;;;5031319;28;20182;-57
2022/01/22 10:18:06;;;;;;;19.10;8.57;;;6.20;99.90;;;;;;5031592;28;20219;-58
2022/01/22 10:20:40;;;;;;;17.63;9.13;;;6.20;99.90;;;;;;5010736;28;20236;-57
2022/01/22 10:23:08;;;;;;;16.27;8.93;;;6.30;99.90;;;;;;5022745;28;20189;-57
2022/01/22 10:25:43;;;;;;;17.33;9.73;;;6.30;99.90;;;;;;5011870;28;20170;-57
2022/01/22 10:28:24;;;;;;;17.13;9.30;;;6.30;99.90;;;;;;5014161;28;20286;-57
2022/01/22 10:30:55;;;;;;;18.27;8.63;;;6.30;99.90;;;;;;5031235;28;20173;-58
2022/01/22 10:33:28;;;;;;;14.17;8.63;;;6.60;99.90;;;;;;5031305;28;20260;-58
2022/01/22 10:36:16;;;;;;;14.23;8.30;;;7.00;99.90;;;;;;5016826;28;20202;-58
2022/01/22 10:38:44;;;;;;;15.97;8.77;;;7.50;99.90;;;;;;4993419;28;20237;-58
2022/01/22 10:41:12;;;;;;;21.27;9.03;;;7.70;99.90;;;;;;5024428;28;20685;-59
2022/01/22 10:43:43;;;;;;;15.80;8.87;;;7.60;99.90;;;;;;5028763;28;20177;-58
2022/01/22 10:46:32;;;;;;;13.23;8.73;;;7.40;99.90;;;;;;5030954;28;20158;-59
2022/01/22 10:48:59;;;;;;;17.40;9.00;;;7.50;99.90;;;;;;5019263;28;20179;-59
2022/01/22 10:51:27;;;;;;;14.47;8.93;;;7.80;99.90;;;;;;5016632;28;20229;-59
2022/01/22 10:54:01;;;;;;;15.57;10.07;;;8.00;99.90;;;;;;5014540;28;20221;-59
2022/01/22 10:56:31;;;;;;;17.30;9.30;;;8.20;99.90;;;;;;5030188;28;20181;-59
2022/01/22 10:59:03;;;;;;;19.87;10.07;;;8.30;99.90;;;;;;5012141;28;20189;-59
2022/01/22 11:01:47;;;;;;;16.57;9.37;;;8.30;99.90;;;;;;5038828;28;20170;-59
2022/01/22 11:04:15;;;;;;;21.07;10.17;;;8.30;99.90;;;;;;5011214;28;20240;-59
2022/01/22 11:06:52;;;;;;;19.23;10.13;;;8.30;99.90;;;;;;5030618;28;20219;-59
2022/01/22 11:09:19;;;;;;;18.40;11.00;;;8.40;99.90;;;;;;5030682;28;20184;-59
2022/01/22 11:11:46;;;;;;;17.03;10.87;;;8.40;99.90;;;;;;5025707;28;20581;-58
2022/01/22 11:14:13;;;;;;;21.60;9.77;;;8.40;99.90;;;;;;5018665;28;20655;-58
2022/01/22 11:16:41;;;;;;;22.13;9.87;;;8.30;99.90;;;;;;5030346;28;20174;-58
2022/01/22 11:19:14;;;;;;;16.77;9.50;;;8.20;99.90;;;;;;5030030;28;20224;-58
2022/01/22 11:21:46;;;;;;;17.33;10.33;;;8.20;99.90;;;;;;5012694;28;20288;-58
2022/01/22 11:24:13;;;;;;;17.80;9.30;;;8.10;99.90;;;;;;5029201;28;20249;-58
2022/01/22 11:26:42;;;;;;;16.93;9.40;;;8.00;99.90;;;;;;5027752;28;20240;-58
2022/01/22 11:29:09;;;;;;;21.33;8.67;;;7.80;99.90;;;;;;5029877;28;20258;-58
2022/01/22 11:31:37;;;;;;;18.87;9.30;;;7.70;99.90;;;;;;5029044;28;20269;-59
2022/01/22 11:34:05;;;;;;;17.87;8.57;;;7.70;99.90;;;;;;5022136;28;20297;-59
2022/01/22 11:36:40;;;;;;;13.87;8.23;;;7.60;99.90;;;;;;5028977;28;20227;-58
2022/01/22 11:39:06;;;;;;;15.87;9.03;;;7.60;99.90;;;;;;5030132;28;20173;-58
2022/01/22 11:41:32;;;;;;;15.53;8.30;;;7.50;99.90;;;;;;5012348;28;20272;-58
2022/01/22 11:46:37;;;;;;;17.53;8.90;;;7.50;99.90;;;;;;5029871;28;20217;-58
2022/01/22 11:49:18;;;;;;;16.63;9.10;;;7.50;99.90;;;;;;5011248;28;20547;-58
2022/01/22 11:51:50;;;;;;;13.50;8.53;;;7.50;99.90;;;;;;5029615;28;20177;-58
2022/01/22 11:54:20;;;;;;;15.83;8.30;;;7.30;99.90;;;;;;5029308;28;20228;-65
2022/01/22 11:56:46;;;;;;;16.60;8.70;;;7.40;99.90;;;;;;5029409;28;20425;-61
2022/01/22 11:59:11;;;;;;;13.73;7.67;;;7.40;99.90;;;;;;5012277;28;20178;-61
2022/01/22 12:01:50;;;;;;;18.80;8.47;;;7.50;99.90;;;;;;5028847;28;20185;-64
2022/01/22 12:04:20;;;;;;;15.17;7.97;;;7.40;99.90;;;;;;5024344;28;20169;-60
2022/01/22 12:07:01;;;;;;;11.27;7.77;;;7.50;99.90;;;;;;5029415;28;20190;-58
2022/01/22 12:09:54;;;;;;;14.63;7.73;;;7.50;99.90;;;;;;5008985;28;20181;-59
2022/01/22 12:15:16;;;;;;;15.87;7.83;;;7.70;99.90;;;;;;5028436;28;20189;-59
2022/01/22 12:17:59;;;;;;;15.97;8.30;;;7.70;99.90;;;;;;5029863;28;20257;-61
2022/01/22 12:20:42;;;;;;;16.10;8.53;;;7.70;99.90;;;;;;5029589;28;20586;-65
2022/01/22 12:23:19;;;;;;;15.33;7.77;;;7.70;99.90;;;;;;5029803;28;20170;-60
2022/01/22 12:25:45;;;;;;;12.57;7.13;;;7.70;99.90;;;;;;5028705;28;20288;-60
2022/01/22 12:28:31;;;;;;;13.17;7.30;;;7.60;99.90;;;;;;5029510;28;20309;-61
2022/01/22 12:31:15;;;;;;;15.43;7.50;;;7.50;99.90;;;;;;5011775;28;20231;-65
2022/01/22 12:33:40;;;;;;;18.70;7.77;;;7.60;99.90;;;;;;5029549;28;20201;-61
2022/01/22 12:36:10;;;;;;;13.57;7.77;;;7.70;99.90;;;;;;5033009;28;20173;-62
2022/01/22 12:38:45;;;;;;;13.23;6.80;;;7.70;99.90;;;;;;5033570;28;20166;-61
2022/01/22 12:44:40;;;;;;;13.80;6.50;;;8.00;99.90;;;;;;5031698;28;20297;-67
2022/01/22 12:47:10;;;;;;;15.67;6.60;;;8.00;99.90;;;;;;5030518;28;20726;-65
2022/01/22 12:49:37;;;;;;;11.60;5.70;;;8.30;99.90;;;;;;5032819;28;20197;-64
2022/01/22 12:52:10;;;;;;;13.73;6.27;;;8.50;99.90;;;;;;5032924;28;20217;-70
2022/01/22 12:54:43;;;;;;;14.70;5.60;;;9.10;99.90;;;;;;5019126;28;20214;-74
2022/01/22 12:57:17;;;;;;;15.37;5.70;;;9.60;99.90;;;;;;5030736;28;20189;-59
2022/01/22 12:59:53;;;;;;;11.80;5.13;;;11.20;99.90;;;;;;5032050;28;20201;-60
2022/01/22 13:02:20;;;;;;;9.57;5.83;;;13.40;99.90;;;;;;5030808;28;20536;-60
2022/01/22 13:04:59;;;;;;;11.57;5.70;;;14.30;99.90;;;;;;5029294;28;20225;-61
2022/01/22 13:07:26;;;;;;;11.13;6.40;;;15.50;99.90;;;;;;5028635;28;20185;-62
2022/01/22 13:09:56;;;;;;;9.90;6.03;;;15.10;99.90;;;;;;5026331;28;20261;-62
2022/01/22 13:12:24;;;;;;;9.40;6.15;;;15.40;99.90;;;;;;5023000;28;20541;-62
2022/01/22 13:14:56;;;;;;;13.15;6.90;;;14.00;99.90;;;;;;5030827;28;20222;-61
2022/01/22 13:17:31;;;;;;;10.13;5.80;;;14.20;99.90;;;;;;5031830;28;20201;-63
2022/01/22 13:19:58;;;;;;;11.70;6.68;;;14.60;99.90;;;;;;5031346;28;20181;-61
2022/01/22 13:22:33;;;;;;;13.27;6.93;;;13.80;99.90;;;;;;5032077;28;20181;-61
2022/01/22 13:25:11;;;;;;;14.45;6.93;;;13.40;99.90;;;;;;5032328;28;20158;-61
2022/01/22 13:27:39;;;;;;;9.68;6.55;;;12.60;99.90;;;;;;5032131;28;20182;-61
2022/01/22 13:30:08;;;;;;;15.38;7.10;;;13.40;99.90;;;;;;5031460;28;20201;-61
2022/01/22 13:32:59;;;;;;;15.18;6.90;;;13.60;99.90;;;;;;5018307;28;20169;-61
2022/01/22 13:49:27;;;;;;;15.48;7.50;;;15.00;99.90;;;;;;5030441;28;20184;-61
2022/01/22 13:52:02;;;;;;;13.07;6.25;;;15.30;99.90;;;;;;5032063;28;20178;-61
2022/01/22 13:54:35;;;;;;;20.08;7.30;;;13.80;99.90;;;;;;5032067;28;20220;-61
2022/01/22 13:57:08;;;;;;;14.00;7.90;;;13.10;99.90;;;;;;5031510;28;20189;-61
2022/01/22 13:59:45;;;;;;;14.82;7.10;;;12.60;99.90;;;;;;5031895;28;20174;-61
2022/01/22 14:04:52;;;;;;;15.13;6.82;;;11.30;99.90;;;;;;5025615;28;20323;-61
2022/01/22 14:07:24;;;;;;;20.60;8.10;;;11.10;99.90;;;;;;5022554;28;20178;-61
2022/01/22 14:10:12;;;;;;;20.25;7.93;;;10.90;99.90;;;;;;5030644;28;20641;-61
2022/01/22 14:15:26;;;;;;;23.00;7.88;;;10.60;99.90;;;;;;5030322;28;20186;-70
2022/01/22 14:18:19;;;;;;;17.97;8.00;;;10.20;99.90;;;;;;5030673;28;20261;-69
2022/01/22 14:21:06;;;;;;;19.03;7.80;;;10.10;99.90;;;;;;5012530;28;20219;-68
2022/01/22 14:23:38;;;;;;;16.73;8.07;;;10.10;99.90;;;;;;5012837;28;20182;-68
2022/01/22 14:26:05;;;;;;;17.53;8.80;;;9.90;99.90;;;;;;5031353;28;20204;-68
2022/01/22 14:28:45;;;;;;;19.90;8.73;;;9.80;99.90;;;;;;5031272;28;20188;-68
2022/01/22 14:31:19;;;;;;;18.20;8.97;;;9.60;99.90;;;;;;5030028;28;20189;-67
2022/01/22 14:33:45;;;;;;;15.33;9.17;;;9.40;99.90;;;;;;5031031;28;20259;-67
2022/01/22 14:36:16;;;;;;;19.33;9.03;;;9.20;99.90;;;;;;5029084;28;20281;-66
2022/01/22 14:46:46;;;;;;;27.27;8.73;;;8.60;99.90;;;;;;5030818;28;20166;-67
2022/01/22 14:49:12;;;;;;;24.60;9.07;;;8.60;99.90;;;;;;5029677;28;20186;-66
2022/01/22 14:51:39;;;;;;;23.53;8.57;;;8.50;99.90;;;;;;5011303;28;20495;-66
2022/01/22 14:54:05;;;;;;;23.30;8.13;;;8.40;99.90;;;;;;5013182;28;20253;-66
2022/01/22 14:56:31;;;;;;;18.93;8.20;;;8.30;99.90;;;;;;5028856;28;20178;-66
2022/01/22 14:58:57;;;;;;;26.07;8.80;;;8.20;99.90;;;;;;5025569;28;20458;-66
2022/01/22 15:01:23;;;;;;;24.07;8.40;;;8.20;99.90;;;;;;5010692;28;20597;-66
2022/01/22 15:03:49;;;;;;;22.87;9.83;;;8.10;99.90;;;;;;5025399;28;20265;-67
2022/01/22 15:06:14;;;;;;;23.73;9.40;;;8.10;99.90;;;;;;5030477;28;20644;-68
2022/01/22 15:08:40;;;;;;;22.80;8.50;;;8.10;99.90;;;;;;5030299;28;20219;-66
2022/01/22 15:11:06;;;;;;;21.20;7.73;;;8.10;99.90;;;;;;5030526;28;20249;-65
2022/01/22 15:13:33;;;;;;;19.97;8.27;;;8.00;99.90;;;;;;5029965;28;20266;-66
2022/01/22 15:16:01;;;;;;;21.23;8.03;;;8.00;99.90;;;;;;5030396;28;20170;-67
2022/01/22 15:21:12;;;;;;;19.27;8.03;;;8.00;99.90;;;;;;5030472;28;20536;-66